CheckWX is a tool to help pilots better visualize weather data.  It is not intended as a substitute for an official pre-flight weather briefing.

14:17:09 UTC

CYEG METAR
Edmonton International Airport
Edmonton, Canada
Current

1 hour ago

CYEG 221300Z 18004KT 20SM BKN230 M01/M07 A2995 RMK CI7 SLP164
Observed
Apr-22 @ 13:00 UTC
Wind
  • 180° at 4 KTS
Visibility
20 SM
Flight Rules
VFR
Cloud Levels
  • Broken at 23,000' AGL
Temperature
-1°C / 30°F
Dewpoint
-7°C / 19°F
Humidity
64%
Altimeter
29.95" Hg
Pressure
1014.22 hPa
Previous

2 hours ago

CYEG 221200Z 20004KT 20SM SCT240 M00/M09 A2997 RMK CI4 SLP171
Observed
Apr-22 @ 12:00 UTC
Wind
  • 200° at 4 KTS
Visibility
20 SM
Flight Rules
VFR
Cloud Levels
  • Scattered at 24,000' AGL
Temperature
C / 32°F
Dewpoint
-9°C / 16°F
Humidity
51%
Altimeter
29.97" Hg
Pressure
1014.92 hPa
Previous

3 hours ago

CYEG 221100Z 23006KT 20SM SCT240 M01/M09 A2997 RMK CI3 SLP172
Observed
Apr-22 @ 11:00 UTC
Wind
  • 230° at 6 KTS
Visibility
20 SM
Flight Rules
VFR
Cloud Levels
  • Scattered at 24,000' AGL
Temperature
-1°C / 30°F
Dewpoint
-9°C / 16°F
Humidity
55%
Altimeter
29.97" Hg
Pressure
1014.92 hPa